Padstow, United Kingdom
Current Conditions -  °F | °C
As of 8:50 AM on Wednesday 22 Oct 2014 (Local Time) from EGHQ Reporting Station
Scattered Clouds Scattered Clouds  
Wind Chill: 52°   Ceiling: Unl
Heat Index: 52°   Visibility: 6mi
Dew Point: 43°   Wind: 14mph
Humidity: 71%   Direction: 290°WNW
Pressure: 30.39"   Gusts: NA
Location:  50.54°N, 4.94°W
Report Text: EGHQ 220750Z 29012KT 9999 SCT032 11/06 Q1029
Loading
Personal Weather Stations






























Interactive Weather Map
Tropical Storm Tracking
New forecast layout! Learn more

10-Day Weather Forecast

Advertisements
Track Severe Weather on mobile